sensor_id;sensor_type;location;lat;lon;timestamp;temperature;humidity
1614;DHT22;800;48.824;9.346;2022-08-11T00:00:00;24.80;38.90
1614;DHT22;800;48.824;9.346;2022-08-11T00:02:34;24.80;39.10
1614;DHT22;800;48.824;9.346;2022-08-11T00:05:08;24.80;38.80
1614;DHT22;800;48.824;9.346;2022-08-11T00:07:43;24.50;39.30
1614;DHT22;800;48.824;9.346;2022-08-11T00:10:11;24.50;39.40
1614;DHT22;800;48.824;9.346;2022-08-11T00:12:38;24.50;39.50
1614;DHT22;800;48.824;9.346;2022-08-11T00:15:04;24.40;39.40
1614;DHT22;800;48.824;9.346;2022-08-11T00:17:31;24.40;39.40
1614;DHT22;800;48.824;9.346;2022-08-11T00:20:10;24.30;39.40
1614;DHT22;800;48.824;9.346;2022-08-11T00:22:39;24.30;39.80
1614;DHT22;800;48.824;9.346;2022-08-11T00:25:17;24.20;40.10
1614;DHT22;800;48.824;9.346;2022-08-11T00:27:44;24.20;39.90
1614;DHT22;800;48.824;9.346;2022-08-11T00:30:12;24.20;39.90
1614;DHT22;800;48.824;9.346;2022-08-11T00:32:40;24.20;39.90
1614;DHT22;800;48.824;9.346;2022-08-11T00:35:12;24.10;39.70
1614;DHT22;800;48.824;9.346;2022-08-11T00:37:38;24.00;39.70
1614;DHT22;800;48.824;9.346;2022-08-11T00:40:17;24.10;39.70
1614;DHT22;800;48.824;9.346;2022-08-11T00:45:38;24.10;40.50
1614;DHT22;800;48.824;9.346;2022-08-11T00:48:14;23.80;40.50
1614;DHT22;800;48.824;9.346;2022-08-11T00:50:59;23.70;40.80
1614;DHT22;800;48.824;9.346;2022-08-11T01:07:39;23.40;41.40
1614;DHT22;800;48.824;9.346;2022-08-11T01:10:10;23.30;41.70
1614;DHT22;800;48.824;9.346;2022-08-11T01:12:55;23.20;41.90
1614;DHT22;800;48.824;9.346;2022-08-11T01:21:07;23.20;41.80
1614;DHT22;800;48.824;9.346;2022-08-11T01:29:52;23.40;41.90
1614;DHT22;800;48.824;9.346;2022-08-11T01:46:38;23.10;42.20
1614;DHT22;800;48.824;9.346;2022-08-11T01:51:57;23.10;42.20
1614;DHT22;800;48.824;9.346;2022-08-11T01:54:35;23.10;42.40
1614;DHT22;800;48.824;9.346;2022-08-11T02:00:25;23.00;42.80
1614;DHT22;800;48.824;9.346;2022-08-11T02:03:06;23.10;42.60
1614;DHT22;800;48.824;9.346;2022-08-11T02:11:21;23.20;42.40
1614;DHT22;800;48.824;9.346;2022-08-11T02:14:11;23.10;42.70
1614;DHT22;800;48.824;9.346;2022-08-11T02:19:41;22.70;43.60
1614;DHT22;800;48.824;9.346;2022-08-11T02:22:54;22.50;43.90
1614;DHT22;800;48.824;9.346;2022-08-11T02:31:19;22.40;44.20
1614;DHT22;800;48.824;9.346;2022-08-11T02:40:09;22.40;44.30
1614;DHT22;800;48.824;9.346;2022-08-11T02:42:51;22.50;44.30
1614;DHT22;800;48.824;9.346;2022-08-11T02:54:14;22.30;44.20
1614;DHT22;800;48.824;9.346;2022-08-11T03:05:14;22.40;44.40
1614;DHT22;800;48.824;9.346;2022-08-11T03:13:37;22.20;44.70
1614;DHT22;800;48.824;9.346;2022-08-11T03:16:52;22.20;44.70
1614;DHT22;800;48.824;9.346;2022-08-11T03:22:42;22.10;44.90
1614;DHT22;800;48.824;9.346;2022-08-11T03:25:18;22.10;44.90
1614;DHT22;800;48.824;9.346;2022-08-11T03:27:51;22.10;45.00
1614;DHT22;800;48.824;9.346;2022-08-11T03:32:56;22.10;45.00
1614;DHT22;800;48.824;9.346;2022-08-11T03:38:44;22.00;45.10
1614;DHT22;800;48.824;9.346;2022-08-11T03:47:36;21.80;45.60
1614;DHT22;800;48.824;9.346;2022-08-11T03:55:46;21.60;46.20
1614;DHT22;800;48.824;9.346;2022-08-11T04:01:43;21.70;46.10
1614;DHT22;800;48.824;9.346;2022-08-11T04:15:54;21.80;45.80
1614;DHT22;800;48.824;9.346;2022-08-11T04:30:14;21.60;47.00
1614;DHT22;800;48.824;9.346;2022-08-11T04:57:20;21.60;46.80
1614;DHT22;800;48.824;9.346;2022-08-11T05:00:07;21.60;46.40
1614;DHT22;800;48.824;9.346;2022-08-11T05:09:02;21.70;46.20
1614;DHT22;800;48.824;9.346;2022-08-11T05:11:49;21.90;46.10
1614;DHT22;800;48.824;9.346;2022-08-11T05:17:23;21.80;46.00
1614;DHT22;800;48.824;9.346;2022-08-11T05:20:11;22.00;46.10
1614;DHT22;800;48.824;9.346;2022-08-11T05:23:01;21.80;46.30
1614;DHT22;800;48.824;9.346;2022-08-11T05:25:48;21.80;46.50
1614;DHT22;800;48.824;9.346;2022-08-11T05:28:37;21.80;46.70
1614;DHT22;800;48.824;9.346;2022-08-11T05:31:34;21.90;46.60
1614;DHT22;800;48.824;9.346;2022-08-11T05:34:22;21.90;46.50
1614;DHT22;800;48.824;9.346;2022-08-11T05:37:41;22.00;46.50
1614;DHT22;800;48.824;9.346;2022-08-11T05:40:13;22.10;46.20
1614;DHT22;800;48.824;9.346;2022-08-11T05:43:00;22.20;46.00
1614;DHT22;800;48.824;9.346;2022-08-11T05:46:02;22.30;45.90
1614;DHT22;800;48.824;9.346;2022-08-11T05:48:48;22.40;45.60
1614;DHT22;800;48.824;9.346;2022-08-11T05:51:40;22.50;45.50
1614;DHT22;800;48.824;9.346;2022-08-11T05:54:26;22.60;45.20
1614;DHT22;800;48.824;9.346;2022-08-11T05:57:19;22.70;45.20
1614;DHT22;800;48.824;9.346;2022-08-11T05:59:46;22.80;44.90
1614;DHT22;800;48.824;9.346;2022-08-11T06:02:13;22.90;44.80
1614;DHT22;800;48.824;9.346;2022-08-11T06:04:39;23.10;44.60
1614;DHT22;800;48.824;9.346;2022-08-11T06:07:08;23.10;44.50
1614;DHT22;800;48.824;9.346;2022-08-11T06:12:15;23.40;44.30
1614;DHT22;800;48.824;9.346;2022-08-11T06:14:43;23.50;44.40
1614;DHT22;800;48.824;9.346;2022-08-11T06:17:11;23.60;43.50
1614;DHT22;800;48.824;9.346;2022-08-11T06:19:40;23.50;43.20
1614;DHT22;800;48.824;9.346;2022-08-11T06:22:10;23.70;43.30
1614;DHT22;800;48.824;9.346;2022-08-11T06:24:40;23.70;42.80
1614;DHT22;800;48.824;9.346;2022-08-11T06:27:07;23.90;42.70
1614;DHT22;800;48.824;9.346;2022-08-11T06:29:35;24.00;42.40
1614;DHT22;800;48.824;9.346;2022-08-11T06:32:06;24.20;42.30
1614;DHT22;800;48.824;9.346;2022-08-11T06:35:00;24.40;41.80
1614;DHT22;800;48.824;9.346;2022-08-11T06:40:07;24.80;41.20
1614;DHT22;800;48.824;9.346;2022-08-11T06:42:44;25.10;41.00
1614;DHT22;800;48.824;9.346;2022-08-11T06:45:33;25.30;40.60
1614;DHT22;800;48.824;9.346;2022-08-11T06:48:05;25.50;40.10
1614;DHT22;800;48.824;9.346;2022-08-11T06:50:34;25.60;39.70
1614;DHT22;800;48.824;9.346;2022-08-11T06:53:19;25.80;39.60
1614;DHT22;800;48.824;9.346;2022-08-11T06:55:47;25.90;39.50
1614;DHT22;800;48.824;9.346;2022-08-11T06:58:34;26.10;39.10
1614;DHT22;800;48.824;9.346;2022-08-11T07:01:40;26.30;38.90
1614;DHT22;800;48.824;9.346;2022-08-11T07:04:12;26.60;38.70
1614;DHT22;800;48.824;9.346;2022-08-11T07:06:53;26.70;38.70
1614;DHT22;800;48.824;9.346;2022-08-11T07:12:42;27.20;37.90
1614;DHT22;800;48.824;9.346;2022-08-11T07:15:32;27.40;37.60
1614;DHT22;800;48.824;9.346;2022-08-11T07:18:30;27.70;36.70
1614;DHT22;800;48.824;9.346;2022-08-11T07:21:29;27.80;35.80
1614;DHT22;800;48.824;9.346;2022-08-11T07:24:53;27.70;35.70
1614;DHT22;800;48.824;9.346;2022-08-11T07:27:45;27.80;35.70
1614;DHT22;800;48.824;9.346;2022-08-11T07:30:33;27.70;35.50
1614;DHT22;800;48.824;9.346;2022-08-11T07:33:02;27.80;35.60
1614;DHT22;800;48.824;9.346;2022-08-11T07:35:34;28.00;35.40
1614;DHT22;800;48.824;9.346;2022-08-11T07:38:03;28.20;35.40
1614;DHT22;800;48.824;9.346;2022-08-11T07:40:29;28.20;35.30
1614;DHT22;800;48.824;9.346;2022-08-11T07:42:56;28.40;34.90
1614;DHT22;800;48.824;9.346;2022-08-11T07:45:23;28.60;34.80
1614;DHT22;800;48.824;9.346;2022-08-11T07:48:09;28.60;34.50
1614;DHT22;800;48.824;9.346;2022-08-11T07:50:55;28.60;34.20
1614;DHT22;800;48.824;9.346;2022-08-11T07:53:40;28.40;34.80
1614;DHT22;800;48.824;9.346;2022-08-11T07:56:06;28.50;34.50
1614;DHT22;800;48.824;9.346;2022-08-11T07:58:34;28.70;33.90
1614;DHT22;800;48.824;9.346;2022-08-11T08:01:22;28.70;34.00
1614;DHT22;800;48.824;9.346;2022-08-11T08:04:09;29.00;34.20
1614;DHT22;800;48.824;9.346;2022-08-11T08:06:55;29.60;33.40
1614;DHT22;800;48.824;9.346;2022-08-11T08:09:40;29.80;32.30
1614;DHT22;800;48.824;9.346;2022-08-11T08:12:25;30.10;31.90
1614;DHT22;800;48.824;9.346;2022-08-11T08:15:12;30.30;31.40
1614;DHT22;800;48.824;9.346;2022-08-11T08:17:59;30.10;31.70
1614;DHT22;800;48.824;9.346;2022-08-11T08:20:38;29.90;31.60
1614;DHT22;800;48.824;9.346;2022-08-11T08:23:05;30.00;31.70
1614;DHT22;800;48.824;9.346;2022-08-11T08:25:33;30.10;31.70
1614;DHT22;800;48.824;9.346;2022-08-11T08:28:03;29.80;30.90
1614;DHT22;800;48.824;9.346;2022-08-11T08:30:29;30.00;30.60
1614;DHT22;800;48.824;9.346;2022-08-11T08:33:30;29.80;31.60
1614;DHT22;800;48.824;9.346;2022-08-11T08:35:59;30.10;30.70
1614;DHT22;800;48.824;9.346;2022-08-11T08:38:52;30.40;31.00
1614;DHT22;800;48.824;9.346;2022-08-11T08:41:28;30.50;30.00
1614;DHT22;800;48.824;9.346;2022-08-11T08:43:58;30.20;30.10
1614;DHT22;800;48.824;9.346;2022-08-11T08:46:33;30.10;29.70
1614;DHT22;800;48.824;9.346;2022-08-11T08:49:01;30.30;29.20
1614;DHT22;800;48.824;9.346;2022-08-11T08:51:28;30.50;29.30
1614;DHT22;800;48.824;9.346;2022-08-11T08:54:08;30.80;29.10
1614;DHT22;800;48.824;9.346;2022-08-11T08:56:35;31.00;28.50
1614;DHT22;800;48.824;9.346;2022-08-11T08:59:03;31.20;28.40
1614;DHT22;800;48.824;9.346;2022-08-11T09:01:35;31.10;28.10
1614;DHT22;800;48.824;9.346;2022-08-11T09:04:12;31.10;28.40
1614;DHT22;800;48.824;9.346;2022-08-11T09:06:39;31.40;28.40
1614;DHT22;800;48.824;9.346;2022-08-11T09:09:06;31.30;27.30
1614;DHT22;800;48.824;9.346;2022-08-11T09:11:37;31.20;27.70
1614;DHT22;800;48.824;9.346;2022-08-11T09:14:24;31.20;27.40
1614;DHT22;800;48.824;9.346;2022-08-11T09:17:12;31.20;27.60
1614;DHT22;800;48.824;9.346;2022-08-11T09:19:38;31.50;27.80
1614;DHT22;800;48.824;9.346;2022-08-11T09:22:04;31.50;27.30
1614;DHT22;800;48.824;9.346;2022-08-11T09:24:50;31.70;27.20
1614;DHT22;800;48.824;9.346;2022-08-11T09:27:36;31.80;26.90
1614;DHT22;800;48.824;9.346;2022-08-11T09:30:05;32.00;26.70
1614;DHT22;800;48.824;9.346;2022-08-11T09:32:32;32.20;26.70
1614;DHT22;800;48.824;9.346;2022-08-11T09:35:00;32.20;26.10
1614;DHT22;800;48.824;9.346;2022-08-11T09:37:27;32.50;25.90
1614;DHT22;800;48.824;9.346;2022-08-11T09:40:13;32.50;26.10
1614;DHT22;800;48.824;9.346;2022-08-11T09:42:59;32.30;25.60
1614;DHT22;800;48.824;9.346;2022-08-11T09:45:49;32.20;25.70
1614;DHT22;800;48.824;9.346;2022-08-11T09:48:19;31.90;26.00
1614;DHT22;800;48.824;9.346;2022-08-11T09:50:54;31.80;26.10
1614;DHT22;800;48.824;9.346;2022-08-11T09:53:21;31.70;25.80
1614;DHT22;800;48.824;9.346;2022-08-11T09:55:48;31.80;26.00
1614;DHT22;800;48.824;9.346;2022-08-11T09:58:15;32.00;26.20
1614;DHT22;800;48.824;9.346;2022-08-11T10:00:44;32.30;25.80
1614;DHT22;800;48.824;9.346;2022-08-11T10:03:24;32.00;25.60
1614;DHT22;800;48.824;9.346;2022-08-11T10:05:57;32.00;25.90
1614;DHT22;800;48.824;9.346;2022-08-11T10:08:42;32.40;25.40
1614;DHT22;800;48.824;9.346;2022-08-11T10:11:11;32.70;24.60
1614;DHT22;800;48.824;9.346;2022-08-11T10:13:42;32.90;24.30
1614;DHT22;800;48.824;9.346;2022-08-11T10:16:28;33.20;24.20
1614;DHT22;800;48.824;9.346;2022-08-11T10:18:57;33.30;24.20
1614;DHT22;800;48.824;9.346;2022-08-11T10:21:37;33.50;24.30
1614;DHT22;800;48.824;9.346;2022-08-11T10:24:05;33.40;24.70
1614;DHT22;800;48.824;9.346;2022-08-11T10:26:53;34.00;24.40
1614;DHT22;800;48.824;9.346;2022-08-11T10:29:39;34.40;22.90
1614;DHT22;800;48.824;9.346;2022-08-11T10:32:26;34.40;23.00
1614;DHT22;800;48.824;9.346;2022-08-11T10:35:11;34.50;23.30
1614;DHT22;800;48.824;9.346;2022-08-11T10:37:40;34.70;23.50
1614;DHT22;800;48.824;9.346;2022-08-11T10:40:07;34.30;23.60
1614;DHT22;800;48.824;9.346;2022-08-11T10:42:35;34.30;23.50
1614;DHT22;800;48.824;9.346;2022-08-11T10:45:20;34.70;23.10
1614;DHT22;800;48.824;9.346;2022-08-11T10:48:06;35.10;22.70
1614;DHT22;800;48.824;9.346;2022-08-11T10:50:32;35.30;21.90
1614;DHT22;800;48.824;9.346;2022-08-11T10:53:17;35.00;22.10
1614;DHT22;800;48.824;9.346;2022-08-11T10:56:04;34.90;22.40
1614;DHT22;800;48.824;9.346;2022-08-11T10:58:49;34.90;22.40
1614;DHT22;800;48.824;9.346;2022-08-11T11:01:32;35.10;22.00
1614;DHT22;800;48.824;9.346;2022-08-11T11:04:32;35.40;21.80
1614;DHT22;800;48.824;9.346;2022-08-11T11:09:45;35.20;21.50
1614;DHT22;800;48.824;9.346;2022-08-11T11:15:20;34.70;22.10
1614;DHT22;800;48.824;9.346;2022-08-11T11:18:11;35.00;22.10
1614;DHT22;800;48.824;9.346;2022-08-11T11:21:27;34.50;21.60
1614;DHT22;800;48.824;9.346;2022-08-11T11:32:15;34.40;22.00
1614;DHT22;800;48.824;9.346;2022-08-11T11:35:15;34.10;22.60
1614;DHT22;800;48.824;9.346;2022-08-11T11:37:45;34.30;22.30
1614;DHT22;800;48.824;9.346;2022-08-11T11:40:15;34.90;21.90
1614;DHT22;800;48.824;9.346;2022-08-11T11:42:46;35.00;21.00
1614;DHT22;800;48.824;9.346;2022-08-11T11:45:18;34.70;21.20
1614;DHT22;800;48.824;9.346;2022-08-11T11:47:45;35.00;21.20
1614;DHT22;800;48.824;9.346;2022-08-11T11:50:11;35.20;21.40
1614;DHT22;800;48.824;9.346;2022-08-11T11:52:38;35.40;21.10
1614;DHT22;800;48.824;9.346;2022-08-11T11:55:05;35.60;21.00
1614;DHT22;800;48.824;9.346;2022-08-11T11:57:32;35.40;20.60
1614;DHT22;800;48.824;9.346;2022-08-11T12:00:18;35.60;20.60
1614;DHT22;800;48.824;9.346;2022-08-11T12:03:07;35.40;20.90
1614;DHT22;800;48.824;9.346;2022-08-11T12:05:35;35.70;20.80
1614;DHT22;800;48.824;9.346;2022-08-11T12:08:02;36.00;20.70
1614;DHT22;800;48.824;9.346;2022-08-11T12:10:37;36.40;20.80
1614;DHT22;800;48.824;9.346;2022-08-11T12:13:04;36.60;20.20
1614;DHT22;800;48.824;9.346;2022-08-11T12:15:49;36.80;20.20
1614;DHT22;800;48.824;9.346;2022-08-11T12:18:17;36.80;19.90
1614;DHT22;800;48.824;9.346;2022-08-11T12:20:43;36.80;19.50
1614;DHT22;800;48.824;9.346;2022-08-11T12:23:11;36.90;19.10
1614;DHT22;800;48.824;9.346;2022-08-11T12:25:56;37.00;19.20
1614;DHT22;800;48.824;9.346;2022-08-11T12:28:42;36.60;19.40
1614;DHT22;800;48.824;9.346;2022-08-11T12:31:08;36.40;19.50
1614;DHT22;800;48.824;9.346;2022-08-11T12:33:38;36.40;19.40
1614;DHT22;800;48.824;9.346;2022-08-11T12:36:07;36.20;19.60
1614;DHT22;800;48.824;9.346;2022-08-11T12:38:34;35.90;19.60
1614;DHT22;800;48.824;9.346;2022-08-11T12:41:01;36.20;19.90
1614;DHT22;800;48.824;9.346;2022-08-11T12:43:46;36.40;19.40
1614;DHT22;800;48.824;9.346;2022-08-11T12:46:33;36.80;19.30
1614;DHT22;800;48.824;9.346;2022-08-11T12:49:21;36.60;19.20
1614;DHT22;800;48.824;9.346;2022-08-11T12:52:16;36.80;19.10
1614;DHT22;800;48.824;9.346;2022-08-11T12:55:25;36.70;19.30
1614;DHT22;800;48.824;9.346;2022-08-11T12:58:10;37.00;18.80
1614;DHT22;800;48.824;9.346;2022-08-11T13:00:45;36.90;18.80
1614;DHT22;800;48.824;9.346;2022-08-11T13:03:31;37.10;19.20
1614;DHT22;800;48.824;9.346;2022-08-11T13:06:16;36.80;19.00
1614;DHT22;800;48.824;9.346;2022-08-11T13:08:44;36.80;19.20
1614;DHT22;800;48.824;9.346;2022-08-11T13:11:11;37.30;18.60
1614;DHT22;800;48.824;9.346;2022-08-11T13:13:56;37.30;18.30
1614;DHT22;800;48.824;9.346;2022-08-11T13:16:31;37.60;18.40
1614;DHT22;800;48.824;9.346;2022-08-11T13:19:19;37.80;17.60
1614;DHT22;800;48.824;9.346;2022-08-11T13:21:47;37.60;17.80
1614;DHT22;800;48.824;9.346;2022-08-11T13:24:13;37.20;18.20
1614;DHT22;800;48.824;9.346;2022-08-11T13:26:39;37.30;18.30
1614;DHT22;800;48.824;9.346;2022-08-11T13:29:05;37.80;18.20
1614;DHT22;800;48.824;9.346;2022-08-11T13:31:32;37.90;17.80
1614;DHT22;800;48.824;9.346;2022-08-11T13:33:58;37.50;18.20
1614;DHT22;800;48.824;9.346;2022-08-11T13:36:25;37.70;18.00
1614;DHT22;800;48.824;9.346;2022-08-11T13:38:54;38.00;18.20
1614;DHT22;800;48.824;9.346;2022-08-11T13:41:20;37.80;17.60
1614;DHT22;800;48.824;9.346;2022-08-11T13:44:08;36.90;18.20
1614;DHT22;800;48.824;9.346;2022-08-11T13:46:34;36.40;18.90
1614;DHT22;800;48.824;9.346;2022-08-11T13:49:01;36.50;18.90
1614;DHT22;800;48.824;9.346;2022-08-11T13:51:27;36.60;19.00
1614;DHT22;800;48.824;9.346;2022-08-11T13:54:08;36.80;18.60
1614;DHT22;800;48.824;9.346;2022-08-11T13:56:39;36.10;18.70
1614;DHT22;800;48.824;9.346;2022-08-11T13:59:07;36.40;19.50
1614;DHT22;800;48.824;9.346;2022-08-11T14:01:37;37.00;18.50
1614;DHT22;800;48.824;9.346;2022-08-11T14:04:16;37.40;18.00
1614;DHT22;800;48.824;9.346;2022-08-11T14:06:49;37.30;18.20
1614;DHT22;800;48.824;9.346;2022-08-11T14:09:20;37.10;18.10
1614;DHT22;800;48.824;9.346;2022-08-11T14:11:47;37.20;18.10
1614;DHT22;800;48.824;9.346;2022-08-11T14:14:33;37.00;18.00
1614;DHT22;800;48.824;9.346;2022-08-11T14:17:04;37.20;17.80
1614;DHT22;800;48.824;9.346;2022-08-11T14:19:35;37.40;17.90
1614;DHT22;800;48.824;9.346;2022-08-11T14:22:04;37.50;18.00
1614;DHT22;800;48.824;9.346;2022-08-11T14:24:37;37.40;17.80
1614;DHT22;800;48.824;9.346;2022-08-11T14:27:05;37.50;17.80
1614;DHT22;800;48.824;9.346;2022-08-11T14:29:31;37.70;18.00
1614;DHT22;800;48.824;9.346;2022-08-11T14:32:01;37.60;17.90
1614;DHT22;800;48.824;9.346;2022-08-11T14:34:29;37.20;18.00
1614;DHT22;800;48.824;9.346;2022-08-11T14:37:01;37.00;18.00
1614;DHT22;800;48.824;9.346;2022-08-11T14:39:31;37.20;17.90
1614;DHT22;800;48.824;9.346;2022-08-11T14:42:03;37.30;17.60
1614;DHT22;800;48.824;9.346;2022-08-11T14:44:50;37.20;17.60
1614;DHT22;800;48.824;9.346;2022-08-11T14:47:36;36.50;18.00
1614;DHT22;800;48.824;9.346;2022-08-11T14:50:05;36.50;18.60
1614;DHT22;800;48.824;9.346;2022-08-11T14:52:32;37.00;18.40
1614;DHT22;800;48.824;9.346;2022-08-11T14:55:02;37.20;17.60
1614;DHT22;800;48.824;9.346;2022-08-11T14:57:47;37.70;17.60
1614;DHT22;800;48.824;9.346;2022-08-11T15:00:14;38.00;17.50
1614;DHT22;800;48.824;9.346;2022-08-11T15:02:41;37.80;17.40
1614;DHT22;800;48.824;9.346;2022-08-11T15:05:27;37.80;17.40
1614;DHT22;800;48.824;9.346;2022-08-11T15:07:54;37.60;17.40
1614;DHT22;800;48.824;9.346;2022-08-11T15:10:21;37.50;17.70
1614;DHT22;800;48.824;9.346;2022-08-11T15:12:47;37.50;17.30
1614;DHT22;800;48.824;9.346;2022-08-11T15:15:14;36.60;17.30
1614;DHT22;800;48.824;9.346;2022-08-11T15:18:02;36.40;18.30
1614;DHT22;800;48.824;9.346;2022-08-11T15:20:30;36.40;18.10
1614;DHT22;800;48.824;9.346;2022-08-11T15:23:14;36.80;18.20
1614;DHT22;800;48.824;9.346;2022-08-11T15:26:06;37.00;18.20
1614;DHT22;800;48.824;9.346;2022-08-11T15:28:39;37.10;18.00
1614;DHT22;800;48.824;9.346;2022-08-11T15:31:27;37.00;18.00
1614;DHT22;800;48.824;9.346;2022-08-11T15:33:57;36.70;18.40
1614;DHT22;800;48.824;9.346;2022-08-11T15:36:46;36.90;18.60
1614;DHT22;800;48.824;9.346;2022-08-11T15:42:13;36.40;18.80
1614;DHT22;800;48.824;9.346;2022-08-11T15:44:59;36.20;19.10
1614;DHT22;800;48.824;9.346;2022-08-11T15:47:56;36.20;18.70
1614;DHT22;800;48.824;9.346;2022-08-11T15:50:26;36.30;18.70
1614;DHT22;800;48.824;9.346;2022-08-11T15:53:01;36.30;18.80
1614;DHT22;800;48.824;9.346;2022-08-11T15:55:28;36.40;18.70
1614;DHT22;800;48.824;9.346;2022-08-11T15:57:58;36.10;19.00
1614;DHT22;800;48.824;9.346;2022-08-11T16:00:45;36.00;19.10
1614;DHT22;800;48.824;9.346;2022-08-11T16:03:38;36.20;18.90
1614;DHT22;800;48.824;9.346;2022-08-11T16:06:24;36.10;18.80
1614;DHT22;800;48.824;9.346;2022-08-11T16:08:50;36.00;19.00
1614;DHT22;800;48.824;9.346;2022-08-11T16:11:18;35.90;19.00
1614;DHT22;800;48.824;9.346;2022-08-11T16:13:46;35.90;19.10
1614;DHT22;800;48.824;9.346;2022-08-11T16:16:13;35.70;18.90
1614;DHT22;800;48.824;9.346;2022-08-11T16:18:53;35.80;18.90
1614;DHT22;800;48.824;9.346;2022-08-11T16:21:25;35.80;19.20
1614;DHT22;800;48.824;9.346;2022-08-11T16:23:54;35.80;19.10
1614;DHT22;800;48.824;9.346;2022-08-11T16:26:22;35.70;19.20
1614;DHT22;800;48.824;9.346;2022-08-11T16:28:57;35.60;19.00
1614;DHT22;800;48.824;9.346;2022-08-11T16:31:24;35.60;19.00
1614;DHT22;800;48.824;9.346;2022-08-11T16:33:53;35.70;19.00
1614;DHT22;800;48.824;9.346;2022-08-11T16:36:21;35.90;19.10
1614;DHT22;800;48.824;9.346;2022-08-11T16:39:07;36.10;18.80
1614;DHT22;800;48.824;9.346;2022-08-11T16:41:35;35.90;19.20
1614;DHT22;800;48.824;9.346;2022-08-11T16:44:21;35.90;19.10
1614;DHT22;800;48.824;9.346;2022-08-11T16:47:12;35.50;19.20
1614;DHT22;800;48.824;9.346;2022-08-11T16:49:49;35.40;19.40
1614;DHT22;800;48.824;9.346;2022-08-11T16:52:16;35.00;19.60
1614;DHT22;800;48.824;9.346;2022-08-11T16:54:43;35.00;19.70
1614;DHT22;800;48.824;9.346;2022-08-11T16:57:14;35.20;19.60
1614;DHT22;800;48.824;9.346;2022-08-11T17:00:03;34.90;20.30
1614;DHT22;800;48.824;9.346;2022-08-11T17:02:34;34.70;20.10
1614;DHT22;800;48.824;9.346;2022-08-11T17:05:22;34.50;20.10
1614;DHT22;800;48.824;9.346;2022-08-11T17:08:08;34.50;20.40
1614;DHT22;800;48.824;9.346;2022-08-11T17:10:56;34.40;20.30
1614;DHT22;800;48.824;9.346;2022-08-11T17:13:52;34.40;20.10
1614;DHT22;800;48.824;9.346;2022-08-11T17:16:26;34.30;20.20
1614;DHT22;800;48.824;9.346;2022-08-11T17:21:32;34.40;20.50
1614;DHT22;800;48.824;9.346;2022-08-11T17:24:03;34.50;20.40
1614;DHT22;800;48.824;9.346;2022-08-11T17:26:38;34.60;20.20
1614;DHT22;800;48.824;9.346;2022-08-11T17:29:34;34.50;20.20
1614;DHT22;800;48.824;9.346;2022-08-11T17:32:02;34.50;20.30
1614;DHT22;800;48.824;9.346;2022-08-11T17:34:48;34.60;20.30
1614;DHT22;800;48.824;9.346;2022-08-11T17:37:34;34.30;20.30
1614;DHT22;800;48.824;9.346;2022-08-11T17:40:04;34.20;20.30
1614;DHT22;800;48.824;9.346;2022-08-11T17:42:31;34.20;20.20
1614;DHT22;800;48.824;9.346;2022-08-11T17:45:17;34.30;20.50
1614;DHT22;800;48.824;9.346;2022-08-11T17:48:03;34.30;20.50
1614;DHT22;800;48.824;9.346;2022-08-11T17:50:48;34.20;20.60
1614;DHT22;800;48.824;9.346;2022-08-11T17:53:16;34.30;21.00
1614;DHT22;800;48.824;9.346;2022-08-11T17:56:01;34.10;20.50
1614;DHT22;800;48.824;9.346;2022-08-11T17:58:47;34.00;20.70
1614;DHT22;800;48.824;9.346;2022-08-11T18:01:34;33.90;20.80
1614;DHT22;800;48.824;9.346;2022-08-11T18:04:05;33.80;20.90
1614;DHT22;800;48.824;9.346;2022-08-11T18:06:32;33.80;21.10
1614;DHT22;800;48.824;9.346;2022-08-11T18:09:01;33.70;21.10
1614;DHT22;800;48.824;9.346;2022-08-11T18:11:46;33.70;21.20
1614;DHT22;800;48.824;9.346;2022-08-11T18:14:34;33.50;21.40
1614;DHT22;800;48.824;9.346;2022-08-11T18:17:19;33.50;21.50
1614;DHT22;800;48.824;9.346;2022-08-11T18:20:05;33.50;21.60
1614;DHT22;800;48.824;9.346;2022-08-11T18:22:51;33.30;21.70
1614;DHT22;800;48.824;9.346;2022-08-11T18:25:43;33.00;21.90
1614;DHT22;800;48.824;9.346;2022-08-11T18:28:34;33.10;21.90
1614;DHT22;800;48.824;9.346;2022-08-11T18:31:21;33.00;21.90
1614;DHT22;800;48.824;9.346;2022-08-11T18:34:09;32.80;22.10
1614;DHT22;800;48.824;9.346;2022-08-11T18:39:49;32.50;22.20
1614;DHT22;800;48.824;9.346;2022-08-11T18:42:38;32.40;22.30
1614;DHT22;800;48.824;9.346;2022-08-11T18:45:23;32.20;22.40
1614;DHT22;800;48.824;9.346;2022-08-11T18:48:12;32.10;22.60
1614;DHT22;800;48.824;9.346;2022-08-11T18:50:59;32.00;22.80
1614;DHT22;800;48.824;9.346;2022-08-11T18:53:49;31.80;23.00
1614;DHT22;800;48.824;9.346;2022-08-11T18:56:34;31.70;23.00
1614;DHT22;800;48.824;9.346;2022-08-11T18:59:23;31.60;23.10
1614;DHT22;800;48.824;9.346;2022-08-11T19:02:09;31.40;23.10
1614;DHT22;800;48.824;9.346;2022-08-11T19:04:55;31.40;23.10
1614;DHT22;800;48.824;9.346;2022-08-11T19:07:43;31.30;23.00
1614;DHT22;800;48.824;9.346;2022-08-11T19:10:29;31.40;22.90
1614;DHT22;800;48.824;9.346;2022-08-11T19:13:14;31.30;22.80
1614;DHT22;800;48.824;9.346;2022-08-11T19:16:01;31.30;22.90
1614;DHT22;800;48.824;9.346;2022-08-11T19:18:48;31.30;23.00
1614;DHT22;800;48.824;9.346;2022-08-11T19:21:33;31.30;23.00
1614;DHT22;800;48.824;9.346;2022-08-11T19:24:19;31.30;23.40
1614;DHT22;800;48.824;9.346;2022-08-11T19:27:05;31.00;24.00
1614;DHT22;800;48.824;9.346;2022-08-11T19:29:50;31.00;24.60
1614;DHT22;800;48.824;9.346;2022-08-11T19:32:37;30.90;25.00
1614;DHT22;800;48.824;9.346;2022-08-11T19:35:22;30.70;25.30
1614;DHT22;800;48.824;9.346;2022-08-11T19:38:07;30.80;25.40
1614;DHT22;800;48.824;9.346;2022-08-11T19:40:53;30.90;25.80
1614;DHT22;800;48.824;9.346;2022-08-11T19:43:38;30.90;26.20
1614;DHT22;800;48.824;9.346;2022-08-11T19:46:24;30.80;26.20
1614;DHT22;800;48.824;9.346;2022-08-11T19:49:09;30.90;26.30
1614;DHT22;800;48.824;9.346;2022-08-11T19:51:56;30.80;26.30
1614;DHT22;800;48.824;9.346;2022-08-11T19:54:42;30.50;26.80
1614;DHT22;800;48.824;9.346;2022-08-11T19:57:28;30.40;27.00
1614;DHT22;800;48.824;9.346;2022-08-11T20:00:17;30.40;27.10
1614;DHT22;800;48.824;9.346;2022-08-11T20:03:04;30.40;27.80
1614;DHT22;800;48.824;9.346;2022-08-11T20:05:48;30.10;27.70
1614;DHT22;800;48.824;9.346;2022-08-11T20:08:34;29.60;28.30
1614;DHT22;800;48.824;9.346;2022-08-11T20:11:19;29.30;28.80
1614;DHT22;800;48.824;9.346;2022-08-11T20:14:05;29.40;29.10
1614;DHT22;800;48.824;9.346;2022-08-11T20:16:52;29.50;28.70
1614;DHT22;800;48.824;9.346;2022-08-11T20:19:38;29.50;29.00
1614;DHT22;800;48.824;9.346;2022-08-11T20:22:24;29.50;28.90
1614;DHT22;800;48.824;9.346;2022-08-11T20:25:09;29.40;28.90
1614;DHT22;800;48.824;9.346;2022-08-11T20:27:55;29.50;29.00
1614;DHT22;800;48.824;9.346;2022-08-11T20:30:43;29.50;28.90
1614;DHT22;800;48.824;9.346;2022-08-11T20:33:28;29.50;29.20
1614;DHT22;800;48.824;9.346;2022-08-11T20:36:15;29.40;29.30
1614;DHT22;800;48.824;9.346;2022-08-11T20:39:00;29.40;29.50
1614;DHT22;800;48.824;9.346;2022-08-11T20:41:47;29.30;29.40
1614;DHT22;800;48.824;9.346;2022-08-11T20:44:32;29.20;29.40
1614;DHT22;800;48.824;9.346;2022-08-11T20:47:18;29.10;29.30
1614;DHT22;800;48.824;9.346;2022-08-11T20:50:05;29.10;29.50
1614;DHT22;800;48.824;9.346;2022-08-11T20:52:50;29.00;29.60